Terminal Aerodrome Forecast
Issued by NWS

Home | Current Version | Previous Version | Graphics & Text | Print | Product List | Glossary On
Versions: 1 2 3 4 5 6 7 8 9 10 11 12 13
625
FTUS43 KBIS 262353
TAFMOT
TAF
KMOT 262353Z 2700/2724 16007KT P6SM SKC
     FM270600 16008KT P6SM FEW120 SCT250 WS020/19040KT
     FM271400 17012G20KT P6SM SCT120 BKN200=

USA.gov is the U.S. government's official web portal to all federal, state and local government web resources and services.